sensor_id;sensor_type;location;lat;lon;timestamp;pressure;altitude;pressure_sealevel;temperature;humidity
19600;BME280;9947;57.722;12.012;2022-10-16T00:01:44;99850.06;;;11.39;83.46
19600;BME280;9947;57.722;12.012;2022-10-16T00:04:11;99863.34;;;11.32;83.90
19600;BME280;9947;57.722;12.012;2022-10-16T00:06:38;99860.38;;;11.26;83.79
19600;BME280;9947;57.722;12.012;2022-10-16T00:09:08;99865.75;;;11.16;84.12
19600;BME280;9947;57.722;12.012;2022-10-16T00:11:38;99858.78;;;11.13;84.15
19600;BME280;9947;57.722;12.012;2022-10-16T00:14:07;99862.78;;;11.09;83.50
19600;BME280;9947;57.722;12.012;2022-10-16T00:16:34;99868.75;;;11.03;83.53
19600;BME280;9947;57.722;12.012;2022-10-16T00:19:01;99879.72;;;11.02;83.08
19600;BME280;9947;57.722;12.012;2022-10-16T00:21:31;99874.44;;;10.91;82.85
19600;BME280;9947;57.722;12.012;2022-10-16T00:24:00;99879.53;;;10.84;83.31
19600;BME280;9947;57.722;12.012;2022-10-16T00:26:28;99878.84;;;10.82;83.08
19600;BME280;9947;57.722;12.012;2022-10-16T00:28:57;99890.78;;;10.79;83.41
19600;BME280;9947;57.722;12.012;2022-10-16T00:31:24;99903.59;;;10.77;83.63
19600;BME280;9947;57.722;12.012;2022-10-16T00:33:53;99897.19;;;10.78;83.41
19600;BME280;9947;57.722;12.012;2022-10-16T00:36:22;99898.91;;;10.79;83.38
19600;BME280;9947;57.722;12.012;2022-10-16T00:38:51;99904.88;;;10.83;83.08
19600;BME280;9947;57.722;12.012;2022-10-16T00:41:20;99899.75;;;10.80;82.89
19600;BME280;9947;57.722;12.012;2022-10-16T00:43:49;99906.88;;;10.81;82.20
19600;BME280;9947;57.722;12.012;2022-10-16T00:46:20;99908.56;;;10.82;81.59
19600;BME280;9947;57.722;12.012;2022-10-16T00:48:51;99904.88;;;10.83;81.92
19600;BME280;9947;57.722;12.012;2022-10-16T00:51:19;99912.13;;;10.82;81.43
19600;BME280;9947;57.722;12.012;2022-10-16T00:53:49;99912.56;;;10.78;81.46
19600;BME280;9947;57.722;12.012;2022-10-16T00:56:16;99908.56;;;10.72;81.47
19600;BME280;9947;57.722;12.012;2022-10-16T00:58:43;99917.94;;;10.68;81.27
19600;BME280;9947;57.722;12.012;2022-10-16T01:01:10;99917.47;;;10.54;81.60
19600;BME280;9947;57.722;12.012;2022-10-16T01:03:39;99911.34;;;10.52;81.73
19600;BME280;9947;57.722;12.012;2022-10-16T01:06:14;99919.44;;;10.52;81.80
19600;BME280;9947;57.722;12.012;2022-10-16T01:08:56;99918.03;;;10.47;81.27
19600;BME280;9947;57.722;12.012;2022-10-16T01:11:29;99922.97;;;10.42;81.16
19600;BME280;9947;57.722;12.012;2022-10-16T01:14:05;99928.53;;;10.41;80.85
19600;BME280;9947;57.722;12.012;2022-10-16T01:16:36;99930.34;;;10.40;80.79
19600;BME280;9947;57.722;12.012;2022-10-16T01:19:11;99929.59;;;10.29;81.29
19600;BME280;9947;57.722;12.012;2022-10-16T01:21:40;99931.56;;;10.27;81.34
19600;BME280;9947;57.722;12.012;2022-10-16T01:24:12;99929.72;;;10.27;81.13
19600;BME280;9947;57.722;12.012;2022-10-16T01:27:09;99933.34;;;10.16;81.20
19600;BME280;9947;57.722;12.012;2022-10-16T01:29:48;99929.81;;;10.16;81.42
19600;BME280;9947;57.722;12.012;2022-10-16T01:32:26;99932.16;;;10.09;81.76
19600;BME280;9947;57.722;12.012;2022-10-16T01:34:59;99929.06;;;10.14;81.10
19600;BME280;9947;57.722;12.012;2022-10-16T01:37:34;99930.31;;;10.10;80.46
19600;BME280;9947;57.722;12.012;2022-10-16T01:40:05;99934.13;;;10.07;80.58
19600;BME280;9947;57.722;12.012;2022-10-16T01:42:38;99934.41;;;10.04;80.34
19600;BME280;9947;57.722;12.012;2022-10-16T01:45:08;99942.06;;;9.99;81.11
19600;BME280;9947;57.722;12.012;2022-10-16T01:47:39;99935.88;;;9.87;81.21
19600;BME280;9947;57.722;12.012;2022-10-16T01:50:08;99940.28;;;9.88;80.96
19600;BME280;9947;57.722;12.012;2022-10-16T01:52:39;99939.56;;;9.86;81.47
19600;BME280;9947;57.722;12.012;2022-10-16T01:55:08;99934.09;;;9.77;81.83
19600;BME280;9947;57.722;12.012;2022-10-16T01:57:45;99941.03;;;9.70;82.44
19600;BME280;9947;57.722;12.012;2022-10-16T02:00:14;99944.13;;;9.65;82.76
19600;BME280;9947;57.722;12.012;2022-10-16T02:02:45;99942.28;;;9.66;83.00
19600;BME280;9947;57.722;12.012;2022-10-16T02:05:18;99943.63;;;9.60;83.46
19600;BME280;9947;57.722;12.012;2022-10-16T02:07:48;99945.28;;;9.51;83.97
19600;BME280;9947;57.722;12.012;2022-10-16T02:10:15;99944.34;;;9.41;84.28
19600;BME280;9947;57.722;12.012;2022-10-16T02:12:46;99948.78;;;9.42;84.95
19600;BME280;9947;57.722;12.012;2022-10-16T02:15:15;99953.44;;;9.40;85.24
19600;BME280;9947;57.722;12.012;2022-10-16T02:17:42;99961.66;;;9.39;85.08
19600;BME280;9947;57.722;12.012;2022-10-16T02:20:10;99957.72;;;9.43;85.92
19600;BME280;9947;57.722;12.012;2022-10-16T02:22:40;99961.00;;;9.46;86.08
19600;BME280;9947;57.722;12.012;2022-10-16T02:25:11;99969.75;;;9.39;86.51
19600;BME280;9947;57.722;12.012;2022-10-16T02:27:47;99977.34;;;9.34;86.64
19600;BME280;9947;57.722;12.012;2022-10-16T02:30:22;99983.72;;;9.33;87.27
19600;BME280;9947;57.722;12.012;2022-10-16T02:32:51;99991.56;;;9.36;87.20
19600;BME280;9947;57.722;12.012;2022-10-16T02:35:21;99983.13;;;9.29;87.96
19600;BME280;9947;57.722;12.012;2022-10-16T02:37:50;99989.25;;;9.31;87.86
19600;BME280;9947;57.722;12.012;2022-10-16T02:40:18;99995.25;;;9.35;88.51
19600;BME280;9947;57.722;12.012;2022-10-16T02:42:51;99987.66;;;9.40;88.28
19600;BME280;9947;57.722;12.012;2022-10-16T02:45:18;99982.00;;;9.43;88.85
19600;BME280;9947;57.722;12.012;2022-10-16T02:47:45;99981.75;;;9.46;88.92
19600;BME280;9947;57.722;12.012;2022-10-16T02:50:12;99973.38;;;9.49;89.44
19600;BME280;9947;57.722;12.012;2022-10-16T02:52:39;99974.63;;;9.45;89.13
19600;BME280;9947;57.722;12.012;2022-10-16T02:55:07;99976.47;;;9.44;89.66
19600;BME280;9947;57.722;12.012;2022-10-16T02:57:33;99979.25;;;9.54;89.68
19600;BME280;9947;57.722;12.012;2022-10-16T03:00:04;99984.09;;;9.60;89.85
19600;BME280;9947;57.722;12.012;2022-10-16T03:02:31;99978.97;;;9.57;90.13
19600;BME280;9947;57.722;12.012;2022-10-16T03:04:58;99977.59;;;9.63;90.54
19600;BME280;9947;57.722;12.012;2022-10-16T03:07:25;99982.63;;;9.67;89.78
19600;BME280;9947;57.722;12.012;2022-10-16T03:09:51;99987.63;;;9.72;89.69
19600;BME280;9947;57.722;12.012;2022-10-16T03:12:19;99982.38;;;9.70;89.57
19600;BME280;9947;57.722;12.012;2022-10-16T03:14:46;99979.78;;;9.69;89.31
19600;BME280;9947;57.722;12.012;2022-10-16T03:17:17;99974.66;;;9.66;89.12
19600;BME280;9947;57.722;12.012;2022-10-16T03:19:44;99973.09;;;9.63;89.35
19600;BME280;9947;57.722;12.012;2022-10-16T03:22:11;99972.19;;;9.63;89.79
19600;BME280;9947;57.722;12.012;2022-10-16T03:24:38;99970.38;;;9.63;89.78
19600;BME280;9947;57.722;12.012;2022-10-16T03:27:05;99976.00;;;9.60;89.93
19600;BME280;9947;57.722;12.012;2022-10-16T03:29:32;99965.34;;;9.58;89.89
19600;BME280;9947;57.722;12.012;2022-10-16T03:31:58;99967.31;;;9.56;90.07
19600;BME280;9947;57.722;12.012;2022-10-16T03:34:27;99985.22;;;9.57;89.81
19600;BME280;9947;57.722;12.012;2022-10-16T03:36:54;99982.19;;;9.51;90.22
19600;BME280;9947;57.722;12.012;2022-10-16T03:39:21;99983.72;;;9.44;90.38
19600;BME280;9947;57.722;12.012;2022-10-16T03:41:47;99981.53;;;9.38;90.46
19600;BME280;9947;57.722;12.012;2022-10-16T03:44:14;99977.59;;;9.31;90.88
19600;BME280;9947;57.722;12.012;2022-10-16T03:46:41;99986.56;;;9.31;91.00
19600;BME280;9947;57.722;12.012;2022-10-16T03:49:08;99979.72;;;9.27;91.25
19600;BME280;9947;57.722;12.012;2022-10-16T03:51:36;99981.56;;;9.26;91.50
19600;BME280;9947;57.722;12.012;2022-10-16T03:54:03;99978.13;;;9.24;92.10
19600;BME280;9947;57.722;12.012;2022-10-16T03:56:30;99987.66;;;9.28;91.94
19600;BME280;9947;57.722;12.012;2022-10-16T03:58:56;99982.94;;;9.21;92.45
19600;BME280;9947;57.722;12.012;2022-10-16T04:01:23;99984.91;;;9.19;92.40
19600;BME280;9947;57.722;12.012;2022-10-16T04:03:50;99979.75;;;9.16;93.10
19600;BME280;9947;57.722;12.012;2022-10-16T04:06:16;99987.97;;;9.14;93.32
19600;BME280;9947;57.722;12.012;2022-10-16T04:08:45;99988.09;;;9.13;93.47
19600;BME280;9947;57.722;12.012;2022-10-16T04:11:11;99986.88;;;9.06;93.76
19600;BME280;9947;57.722;12.012;2022-10-16T04:13:39;99989.22;;;8.99;94.05
19600;BME280;9947;57.722;12.012;2022-10-16T04:16:06;99992.56;;;8.91;94.63
19600;BME280;9947;57.722;12.012;2022-10-16T04:18:33;99987.53;;;8.87;94.73
19600;BME280;9947;57.722;12.012;2022-10-16T04:21:02;99987.16;;;8.80;95.10
19600;BME280;9947;57.722;12.012;2022-10-16T04:23:29;99987.28;;;8.79;95.61
19600;BME280;9947;57.722;12.012;2022-10-16T04:25:58;99987.03;;;8.82;95.87
19600;BME280;9947;57.722;12.012;2022-10-16T04:28:24;99985.31;;;8.81;95.92
19600;BME280;9947;57.722;12.012;2022-10-16T04:30:52;99982.63;;;8.81;96.28
19600;BME280;9947;57.722;12.012;2022-10-16T04:33:19;99982.88;;;8.89;96.60
19600;BME280;9947;57.722;12.012;2022-10-16T04:35:45;99980.31;;;8.87;96.88
19600;BME280;9947;57.722;12.012;2022-10-16T04:38:12;99980.31;;;8.87;97.15
19600;BME280;9947;57.722;12.012;2022-10-16T04:40:39;99975.78;;;8.88;97.20
19600;BME280;9947;57.722;12.012;2022-10-16T04:43:09;99979.47;;;8.87;97.25
19600;BME280;9947;57.722;12.012;2022-10-16T04:45:36;99979.59;;;8.85;97.30
19600;BME280;9947;57.722;12.012;2022-10-16T04:48:03;99979.69;;;8.84;97.69
19600;BME280;9947;57.722;12.012;2022-10-16T04:50:29;99987.78;;;8.84;97.86
19600;BME280;9947;57.722;12.012;2022-10-16T04:52:56;99984.22;;;8.83;97.81
19600;BME280;9947;57.722;12.012;2022-10-16T04:55:23;99985.06;;;8.84;97.86
19600;BME280;9947;57.722;12.012;2022-10-16T04:57:50;99982.28;;;8.85;98.12
19600;BME280;9947;57.722;12.012;2022-10-16T05:00:18;99990.59;;;8.93;97.94
19600;BME280;9947;57.722;12.012;2022-10-16T05:02:45;99997.81;;;8.93;98.27
19600;BME280;9947;57.722;12.012;2022-10-16T05:05:12;99999.16;;;8.99;98.44
19600;BME280;9947;57.722;12.012;2022-10-16T05:07:39;99990.81;;;9.02;98.44
19600;BME280;9947;57.722;12.012;2022-10-16T05:10:08;99986.16;;;9.04;98.75
19600;BME280;9947;57.722;12.012;2022-10-16T05:12:35;99967.41;;;9.02;98.71
19600;BME280;9947;57.722;12.012;2022-10-16T05:15:04;99970.09;;;9.02;98.89
19600;BME280;9947;57.722;12.012;2022-10-16T05:17:33;99970.81;;;9.04;99.03
19600;BME280;9947;57.722;12.012;2022-10-16T05:20:00;99974.13;;;9.08;99.03
19600;BME280;9947;57.722;12.012;2022-10-16T05:22:27;99970.94;;;9.14;99.49
19600;BME280;9947;57.722;12.012;2022-10-16T05:24:53;99977.91;;;9.16;99.38
19600;BME280;9947;57.722;12.012;2022-10-16T05:27:20;99969.56;;;9.19;99.56
19600;BME280;9947;57.722;12.012;2022-10-16T05:29:48;99979.25;;;9.22;99.86
19600;BME280;9947;57.722;12.012;2022-10-16T05:32:16;99968.78;;;9.28;100.00
19600;BME280;9947;57.722;12.012;2022-10-16T05:34:45;99974.31;;;9.27;100.00
19600;BME280;9947;57.722;12.012;2022-10-16T05:37:12;99966.22;;;9.27;99.99
19600;BME280;9947;57.722;12.012;2022-10-16T05:39:39;99959.72;;;9.30;99.86
19600;BME280;9947;57.722;12.012;2022-10-16T05:42:06;99967.47;;;9.23;100.00
19600;BME280;9947;57.722;12.012;2022-10-16T05:44:35;99966.00;;;9.19;100.00
19600;BME280;9947;57.722;12.012;2022-10-16T05:47:02;99975.56;;;9.23;100.00
19600;BME280;9947;57.722;12.012;2022-10-16T05:49:31;99974.31;;;9.27;100.00
19600;BME280;9947;57.722;12.012;2022-10-16T05:52:01;99962.06;;;9.23;100.00
19600;BME280;9947;57.722;12.012;2022-10-16T05:54:27;99971.09;;;9.33;100.00
19600;BME280;9947;57.722;12.012;2022-10-16T05:56:54;99969.97;;;9.36;100.00
19600;BME280;9947;57.722;12.012;2022-10-16T05:59:21;99975.38;;;9.36;100.00
19600;BME280;9947;57.722;12.012;2022-10-16T06:01:48;99984.22;;;9.38;100.00
19600;BME280;9947;57.722;12.012;2022-10-16T06:04:14;99986.66;;;9.41;100.00
19600;BME280;9947;57.722;12.012;2022-10-16T06:06:41;99974.88;;;9.42;100.00
19600;BME280;9947;57.722;12.012;2022-10-16T06:09:10;99984.31;;;9.47;100.00
19600;BME280;9947;57.722;12.012;2022-10-16T06:11:36;99973.44;;;9.58;100.00
19600;BME280;9947;57.722;12.012;2022-10-16T06:14:05;99974.78;;;9.64;100.00
19600;BME280;9947;57.722;12.012;2022-10-16T06:16:33;99974.13;;;9.72;100.00
19600;BME280;9947;57.722;12.012;2022-10-16T06:19:00;99975.59;;;9.76;100.00
19600;BME280;9947;57.722;12.012;2022-10-16T06:21:28;99980.19;;;9.85;100.00
19600;BME280;9947;57.722;12.012;2022-10-16T06:23:56;99972.81;;;9.87;100.00
19600;BME280;9947;57.722;12.012;2022-10-16T06:26:25;99976.50;;;9.86;100.00
19600;BME280;9947;57.722;12.012;2022-10-16T06:28:57;99970.19;;;9.97;100.00
19600;BME280;9947;57.722;12.012;2022-10-16T06:31:25;99967.53;;;10.06;100.00
19600;BME280;9947;57.722;12.012;2022-10-16T06:33:53;99979.28;;;10.16;100.00
19600;BME280;9947;57.722;12.012;2022-10-16T06:36:20;99978.94;;;10.31;100.00
19600;BME280;9947;57.722;12.012;2022-10-16T06:38:47;99976.97;;;10.33;100.00
19600;BME280;9947;57.722;12.012;2022-10-16T06:41:16;99979.88;;;10.41;100.00
19600;BME280;9947;57.722;12.012;2022-10-16T06:43:46;99988.81;;;10.41;100.00
19600;BME280;9947;57.722;12.012;2022-10-16T06:46:15;99980.56;;;10.43;100.00
19600;BME280;9947;57.722;12.012;2022-10-16T06:48:42;99973.91;;;10.47;99.86
19600;BME280;9947;57.722;12.012;2022-10-16T06:51:14;99966.09;;;10.54;99.02
19600;BME280;9947;57.722;12.012;2022-10-16T06:53:43;99971.88;;;10.70;98.23
19600;BME280;9947;57.722;12.012;2022-10-16T06:56:12;99969.19;;;10.79;96.83
19600;BME280;9947;57.722;12.012;2022-10-16T06:58:39;99972.75;;;10.90;95.86
19600;BME280;9947;57.722;12.012;2022-10-16T07:01:08;99965.50;;;10.90;94.64
19600;BME280;9947;57.722;12.012;2022-10-16T07:03:36;99965.50;;;10.90;92.96
19600;BME280;9947;57.722;12.012;2022-10-16T07:06:04;99975.19;;;10.93;91.45
19600;BME280;9947;57.722;12.012;2022-10-16T07:08:32;99968.69;;;10.95;90.01
19600;BME280;9947;57.722;12.012;2022-10-16T07:10:59;99980.34;;;10.96;88.57
19600;BME280;9947;57.722;12.012;2022-10-16T07:13:26;99977.63;;;10.96;87.42
19600;BME280;9947;57.722;12.012;2022-10-16T07:15:53;99966.84;;;11.05;86.09
19600;BME280;9947;57.722;12.012;2022-10-16T07:18:22;99969.81;;;11.02;85.31
19600;BME280;9947;57.722;12.012;2022-10-16T07:20:52;99956.72;;;10.98;84.43
19600;BME280;9947;57.722;12.012;2022-10-16T07:23:19;99961.41;;;10.96;84.47
19600;BME280;9947;57.722;12.012;2022-10-16T07:25:45;99957.25;;;10.92;84.15
19600;BME280;9947;57.722;12.012;2022-10-16T07:28:12;99970.97;;;11.00;83.66
19600;BME280;9947;57.722;12.012;2022-10-16T07:30:39;99975.38;;;11.10;83.11
19600;BME280;9947;57.722;12.012;2022-10-16T07:33:06;99963.28;;;11.15;82.52
19600;BME280;9947;57.722;12.012;2022-10-16T07:35:36;99971.00;;;11.29;82.37
19600;BME280;9947;57.722;12.012;2022-10-16T07:38:03;99961.88;;;11.39;81.13
19600;BME280;9947;57.722;12.012;2022-10-16T07:40:30;99959.50;;;11.46;80.36
19600;BME280;9947;57.722;12.012;2022-10-16T07:42:57;99965.88;;;11.55;80.42
19600;BME280;9947;57.722;12.012;2022-10-16T07:45:23;99962.59;;;11.70;79.68
19600;BME280;9947;57.722;12.012;2022-10-16T07:47:50;99963.03;;;11.76;79.52
19600;BME280;9947;57.722;12.012;2022-10-16T07:50:17;99955.91;;;11.74;79.56
19600;BME280;9947;57.722;12.012;2022-10-16T07:52:46;99952.81;;;11.79;79.25
19600;BME280;9947;57.722;12.012;2022-10-16T07:55:13;99951.94;;;11.79;79.22
19600;BME280;9947;57.722;12.012;2022-10-16T07:57:39;99956.22;;;11.81;79.48
19600;BME280;9947;57.722;12.012;2022-10-16T08:00:07;99961.91;;;11.88;79.30
19600;BME280;9947;57.722;12.012;2022-10-16T08:02:38;99948.22;;;11.89;79.17
19600;BME280;9947;57.722;12.012;2022-10-16T08:05:06;99950.47;;;12.03;79.17
19600;BME280;9947;57.722;12.012;2022-10-16T08:07:32;99953.72;;;12.17;79.30
19600;BME280;9947;57.722;12.012;2022-10-16T08:10:01;99955.56;;;12.26;79.78
19600;BME280;9947;57.722;12.012;2022-10-16T08:12:28;99954.25;;;12.20;79.81
19600;BME280;9947;57.722;12.012;2022-10-16T08:14:54;99950.00;;;12.18;80.01
19600;BME280;9947;57.722;12.012;2022-10-16T08:17:21;99952.56;;;12.19;80.87
19600;BME280;9947;57.722;12.012;2022-10-16T08:19:48;99960.13;;;12.25;81.11
19600;BME280;9947;57.722;12.012;2022-10-16T08:22:15;99956.63;;;12.43;81.92
19600;BME280;9947;57.722;12.012;2022-10-16T08:24:42;99962.59;;;12.46;81.84
19600;BME280;9947;57.722;12.012;2022-10-16T08:27:10;99957.78;;;12.40;81.81
19600;BME280;9947;57.722;12.012;2022-10-16T08:29:37;99947.34;;;12.45;82.96
19600;BME280;9947;57.722;12.012;2022-10-16T08:32:04;99959.72;;;12.48;83.76
19600;BME280;9947;57.722;12.012;2022-10-16T08:34:31;99971.97;;;12.61;83.56
19600;BME280;9947;57.722;12.012;2022-10-16T08:36:57;99959.16;;;12.54;84.66
19600;BME280;9947;57.722;12.012;2022-10-16T08:39:24;99960.81;;;12.64;84.26
19600;BME280;9947;57.722;12.012;2022-10-16T08:42:11;99968.03;;;12.74;85.18
19600;BME280;9947;57.722;12.012;2022-10-16T08:45:02;99956.16;;;12.84;86.64
19600;BME280;9947;57.722;12.012;2022-10-16T08:47:43;99958.47;;;12.79;87.20
19600;BME280;9947;57.722;12.012;2022-10-16T08:50:13;99975.13;;;12.57;86.98
19600;BME280;9947;57.722;12.012;2022-10-16T08:52:43;99954.00;;;12.60;86.68
19600;BME280;9947;57.722;12.012;2022-10-16T08:55:24;99970.06;;;12.72;87.80
19600;BME280;9947;57.722;12.012;2022-10-16T08:57:55;99965.44;;;12.82;88.69
19600;BME280;9947;57.722;12.012;2022-10-16T09:00:23;99970.50;;;12.94;90.80
19600;BME280;9947;57.722;12.012;2022-10-16T09:02:53;99971.28;;;12.87;91.24
19600;BME280;9947;57.722;12.012;2022-10-16T09:05:45;99971.19;;;12.79;89.51
19600;BME280;9947;57.722;12.012;2022-10-16T09:08:21;99977.88;;;12.75;90.44
19600;BME280;9947;57.722;12.012;2022-10-16T09:10:56;99982.22;;;12.95;90.50
19600;BME280;9947;57.722;12.012;2022-10-16T09:13:29;99984.63;;;12.98;90.04
19600;BME280;9947;57.722;12.012;2022-10-16T09:16:12;99970.47;;;12.77;89.29
19600;BME280;9947;57.722;12.012;2022-10-16T09:18:45;99977.63;;;12.68;89.19
19600;BME280;9947;57.722;12.012;2022-10-16T09:21:18;99980.25;;;12.60;87.60
19600;BME280;9947;57.722;12.012;2022-10-16T09:23:48;99981.25;;;12.59;86.67
19600;BME280;9947;57.722;12.012;2022-10-16T09:26:16;99978.84;;;12.56;87.21
19600;BME280;9947;57.722;12.012;2022-10-16T09:28:46;99968.72;;;12.48;86.46
19600;BME280;9947;57.722;12.012;2022-10-16T09:31:15;99980.47;;;12.39;84.95
19600;BME280;9947;57.722;12.012;2022-10-16T09:33:45;99973.16;;;12.49;84.28
19600;BME280;9947;57.722;12.012;2022-10-16T09:36:15;99980.16;;;12.52;83.91
19600;BME280;9947;57.722;12.012;2022-10-16T09:38:42;99971.31;;;12.50;84.62
19600;BME280;9947;57.722;12.012;2022-10-16T09:41:16;99973.03;;;12.41;84.70
19600;BME280;9947;57.722;12.012;2022-10-16T09:43:49;99971.88;;;12.53;85.10
19600;BME280;9947;57.722;12.012;2022-10-16T09:46:25;99976.84;;;12.58;88.08
19600;BME280;9947;57.722;12.012;2022-10-16T09:48:54;99971.41;;;12.58;87.07
19600;BME280;9947;57.722;12.012;2022-10-16T09:51:24;99982.75;;;12.71;89.97
19600;BME280;9947;57.722;12.012;2022-10-16T09:53:55;99985.44;;;12.81;92.84
19600;BME280;9947;57.722;12.012;2022-10-16T09:56:24;99986.41;;;12.89;94.83
19600;BME280;9947;57.722;12.012;2022-10-16T09:58:53;99972.38;;;12.94;96.68
19600;BME280;9947;57.722;12.012;2022-10-16T10:01:24;99970.50;;;12.94;95.47
19600;BME280;9947;57.722;12.012;2022-10-16T10:03:56;99960.00;;;13.09;97.42
19600;BME280;9947;57.722;12.012;2022-10-16T10:06:28;99960.78;;;13.02;99.02
19600;BME280;9947;57.722;12.012;2022-10-16T10:08:58;99969.66;;;12.94;98.33
19600;BME280;9947;57.722;12.012;2022-10-16T10:11:39;99967.50;;;12.97;97.70
19600;BME280;9947;57.722;12.012;2022-10-16T10:14:16;99970.88;;;13.09;96.53
19600;BME280;9947;57.722;12.012;2022-10-16T10:16:44;99981.63;;;13.29;99.73
19600;BME280;9947;57.722;12.012;2022-10-16T10:19:14;99945.63;;;13.26;100.00
19600;BME280;9947;57.722;12.012;2022-10-16T10:21:41;99956.19;;;13.47;100.00
19600;BME280;9947;57.722;12.012;2022-10-16T10:24:11;99954.56;;;13.54;100.00
19600;BME280;9947;57.722;12.012;2022-10-16T10:26:40;99957.56;;;13.69;100.00
19600;BME280;9947;57.722;12.012;2022-10-16T10:29:17;99949.69;;;13.58;100.00
19600;BME280;9947;57.722;12.012;2022-10-16T10:31:50;99953.41;;;13.57;100.00
19600;BME280;9947;57.722;12.012;2022-10-16T10:34:38;99966.28;;;13.55;100.00
19600;BME280;9947;57.722;12.012;2022-10-16T10:37:19;99956.72;;;13.51;100.00
19600;BME280;9947;57.722;12.012;2022-10-16T10:39:56;99970.63;;;13.30;100.00
19600;BME280;9947;57.722;12.012;2022-10-16T10:42:31;99969.06;;;13.27;100.00
19600;BME280;9947;57.722;12.012;2022-10-16T10:45:24;99967.75;;;13.04;100.00
19600;BME280;9947;57.722;12.012;2022-10-16T10:48:06;99962.97;;;12.88;99.40
19600;BME280;9947;57.722;12.012;2022-10-16T10:50:41;99977.75;;;12.76;95.81
19600;BME280;9947;57.722;12.012;2022-10-16T10:53:21;99971.72;;;12.55;89.94
19600;BME280;9947;57.722;12.012;2022-10-16T10:55:54;99969.38;;;12.32;86.55
19600;BME280;9947;57.722;12.012;2022-10-16T10:58:36;99959.00;;;12.09;90.03
19600;BME280;9947;57.722;12.012;2022-10-16T11:01:09;99964.16;;;12.02;92.40
19600;BME280;9947;57.722;12.012;2022-10-16T11:03:51;99970.25;;;12.14;86.93
19600;BME280;9947;57.722;12.012;2022-10-16T11:06:26;99972.28;;;12.58;85.50
19600;BME280;9947;57.722;12.012;2022-10-16T11:08:59;99970.34;;;12.69;84.11
19600;BME280;9947;57.722;12.012;2022-10-16T11:11:32;99955.41;;;12.64;82.28
19600;BME280;9947;57.722;12.012;2022-10-16T11:14:04;99959.19;;;12.72;81.97
19600;BME280;9947;57.722;12.012;2022-10-16T11:16:37;99961.81;;;12.63;81.40
19600;BME280;9947;57.722;12.012;2022-10-16T11:19:11;99949.63;;;12.77;81.20
19600;BME280;9947;57.722;12.012;2022-10-16T11:21:46;99962.75;;;12.82;81.63
19600;BME280;9947;57.722;12.012;2022-10-16T11:24:20;99947.16;;;12.84;82.62
19600;BME280;9947;57.722;12.012;2022-10-16T11:26:50;99951.78;;;13.01;83.68
19600;BME280;9947;57.722;12.012;2022-10-16T11:29:23;99948.31;;;13.09;85.39
19600;BME280;9947;57.722;12.012;2022-10-16T11:31:54;99945.06;;;13.05;85.86
19600;BME280;9947;57.722;12.012;2022-10-16T11:34:27;99946.22;;;13.03;86.88
19600;BME280;9947;57.722;12.012;2022-10-16T11:36:58;99935.78;;;12.98;87.16
19600;BME280;9947;57.722;12.012;2022-10-16T11:39:29;99943.06;;;12.97;87.64
19600;BME280;9947;57.722;12.012;2022-10-16T11:42:02;99936.91;;;13.05;87.64
19600;BME280;9947;57.722;12.012;2022-10-16T11:44:38;99925.41;;;12.93;86.38
19600;BME280;9947;57.722;12.012;2022-10-16T11:47:17;99932.78;;;12.74;86.87
19600;BME280;9947;57.722;12.012;2022-10-16T11:49:47;99937.41;;;12.63;86.73
19600;BME280;9947;57.722;12.012;2022-10-16T11:52:20;99938.72;;;12.59;86.72
19600;BME280;9947;57.722;12.012;2022-10-16T11:54:53;99940.75;;;12.48;86.09
19600;BME280;9947;57.722;12.012;2022-10-16T11:57:24;99925.81;;;12.44;92.06
19600;BME280;9947;57.722;12.012;2022-10-16T11:59:57;99918.19;;;12.29;91.90
19600;BME280;9947;57.722;12.012;2022-10-16T12:02:40;100010.03;;;12.23;89.28
19600;BME280;9947;57.722;12.012;2022-10-16T12:05:20;100048.75;;;11.27;88.15
19600;BME280;9947;57.722;12.012;2022-10-16T12:07:56;100050.66;;;10.03;98.67
19600;BME280;9947;57.722;12.012;2022-10-16T12:10:29;100043.19;;;9.42;96.42
19600;BME280;9947;57.722;12.012;2022-10-16T12:12:57;100033.09;;;9.12;91.10
19600;BME280;9947;57.722;12.012;2022-10-16T12:15:25;100035.44;;;8.94;86.57
19600;BME280;9947;57.722;12.012;2022-10-16T12:17:54;100024.66;;;8.94;85.17
19600;BME280;9947;57.722;12.012;2022-10-16T12:20:28;100018.41;;;8.83;84.25
19600;BME280;9947;57.722;12.012;2022-10-16T12:22:59;100027.47;;;8.82;83.18
19600;BME280;9947;57.722;12.012;2022-10-16T12:25:29;100023.31;;;8.89;83.03
19600;BME280;9947;57.722;12.012;2022-10-16T12:27:59;100014.25;;;8.90;82.78
19600;BME280;9947;57.722;12.012;2022-10-16T12:30:28;100006.00;;;9.03;82.85
19600;BME280;9947;57.722;12.012;2022-10-16T12:32:58;99992.63;;;9.12;81.88
19600;BME280;9947;57.722;12.012;2022-10-16T12:35:28;100002.44;;;9.13;82.32
19600;BME280;9947;57.722;12.012;2022-10-16T12:38:05;99997.13;;;9.23;82.01
19600;BME280;9947;57.722;12.012;2022-10-16T12:40:35;100011.06;;;9.39;81.50
19600;BME280;9947;57.722;12.012;2022-10-16T12:43:34;100012.44;;;9.66;80.98
19600;BME280;9947;57.722;12.012;2022-10-16T12:46:04;100013.91;;;10.11;80.37
19600;BME280;9947;57.722;12.012;2022-10-16T12:48:33;99996.13;;;10.30;80.26
19600;BME280;9947;57.722;12.012;2022-10-16T12:51:10;100001.41;;;10.31;80.49
19600;BME280;9947;57.722;12.012;2022-10-16T12:53:38;100012.66;;;10.36;80.87
19600;BME280;9947;57.722;12.012;2022-10-16T12:56:12;100016.03;;;10.29;80.77
19600;BME280;9947;57.722;12.012;2022-10-16T12:58:56;100023.88;;;10.32;80.48
19600;BME280;9947;57.722;12.012;2022-10-16T13:01:37;100020.28;;;10.22;80.34
19600;BME280;9947;57.722;12.012;2022-10-16T13:04:41;100028.69;;;10.28;80.32
19600;BME280;9947;57.722;12.012;2022-10-16T13:07:29;100039.53;;;10.38;80.12
19600;BME280;9947;57.722;12.012;2022-10-16T13:10:08;100038.75;;;10.47;79.97
19600;BME280;9947;57.722;12.012;2022-10-16T13:13:00;100040.91;;;10.53;79.81
19600;BME280;9947;57.722;12.012;2022-10-16T13:15:45;100061.72;;;10.62;80.73
19600;BME280;9947;57.722;12.012;2022-10-16T13:18:22;100055.31;;;10.63;82.25
19600;BME280;9947;57.722;12.012;2022-10-16T13:21:06;100062.50;;;10.74;83.63